Time;durP1;ratioP1;P1;durP2;ratioP2;P2;SDS_P1;SDS_P2;PMS_P1;PMS_P2;Temp;Humidity;BMP_temperature;BMP_pressure;BME280_temperature;BME280_humidity;BME280_pressure;Samples;Min_cycle;Max_cycle;Signal;HPM_P1;HPM_P2
2021/06/14 00:00:42;;;;;;;5.65;4.80;;;21.90;99.90;;;;;;5034410;28;20033;-86
2021/06/14 00:03:08;;;;;;;5.55;5.05;;;21.90;99.90;;;;;;5033776;28;20488;-86
2021/06/14 00:05:41;;;;;;;5.85;5.35;;;21.80;99.90;;;;;;5016068;28;20029;-86
2021/06/14 00:08:09;;;;;;;6.40;5.18;;;21.80;99.90;;;;;;5013048;28;20027;-87
2021/06/14 00:10:36;;;;;;;5.97;5.38;;;21.80;99.90;;;;;;5033435;28;20083;-86
2021/06/14 00:13:04;;;;;;;5.63;5.10;;;21.70;99.90;;;;;;5033360;28;20090;-86
2021/06/14 00:15:30;;;;;;;6.25;5.10;;;21.50;99.90;;;;;;5033771;28;20041;-86
2021/06/14 00:17:57;;;;;;;5.75;5.15;;;21.50;99.90;;;;;;5033913;28;20505;-86
2021/06/14 00:20:23;;;;;;;5.78;5.28;;;21.60;99.90;;;;;;5033488;28;20477;-86
2021/06/14 00:22:50;;;;;;;6.15;4.97;;;21.60;99.90;;;;;;5033768;28;20129;-86
2021/06/14 00:25:22;;;;;;;6.15;5.05;;;21.60;99.90;;;;;;5033046;28;20098;-86
2021/06/14 00:27:48;;;;;;;5.32;4.63;;;21.50;99.90;;;;;;5033585;28;20033;-86
2021/06/14 00:30:17;;;;;;;6.40;5.18;;;21.50;99.90;;;;;;5033277;28;20028;-86
2021/06/14 00:32:42;;;;;;;6.97;5.30;;;21.40;99.90;;;;;;5033468;28;20501;-86
2021/06/14 00:35:08;;;;;;;5.68;5.13;;;21.30;99.90;;;;;;5033443;28;20099;-86
2021/06/14 00:37:34;;;;;;;5.68;5.05;;;21.20;99.90;;;;;;5032937;28;20033;-86
2021/06/14 00:40:00;;;;;;;6.45;5.65;;;21.20;99.90;;;;;;5033325;28;20516;-86
2021/06/14 00:42:25;;;;;;;6.30;5.65;;;21.20;99.90;;;;;;5032844;28;20017;-86
2021/06/14 00:44:51;;;;;;;6.15;5.55;;;21.20;99.90;;;;;;5033059;28;20173;-86
2021/06/14 00:47:16;;;;;;;6.05;5.18;;;21.00;99.90;;;;;;5032864;28;20037;-86
2021/06/14 00:49:42;;;;;;;5.90;5.30;;;20.90;99.90;;;;;;5032911;28;20030;-86
2021/06/14 00:52:08;;;;;;;5.25;4.78;;;20.80;99.90;;;;;;5032730;28;20049;-86
2021/06/14 00:54:34;;;;;;;7.68;5.65;;;20.80;99.90;;;;;;5032425;28;20044;-86
2021/06/14 00:56:59;;;;;;;5.50;5.03;;;20.80;99.90;;;;;;5033039;28;20460;-86
2021/06/14 00:59:25;;;;;;;6.80;5.15;;;20.80;99.90;;;;;;5033425;28;20084;-86
2021/06/14 01:01:51;;;;;;;5.60;5.10;;;20.70;99.90;;;;;;5033148;28;20516;-86
2021/06/14 01:04:18;;;;;;;6.97;5.53;;;20.70;99.90;;;;;;5032657;28;20036;-86
2021/06/14 01:06:48;;;;;;;5.63;5.13;;;20.80;99.90;;;;;;5031972;28;20029;-86
2021/06/14 01:09:13;;;;;;;5.68;5.05;;;20.60;99.90;;;;;;5032527;28;20082;-86
2021/06/14 01:12:02;;;;;;;5.90;5.30;;;20.60;99.90;;;;;;5032441;28;20071;-85
2021/06/14 01:14:44;;;;;;;7.75;5.68;;;20.50;99.90;;;;;;5032660;28;20075;-86
2021/06/14 01:17:18;;;;;;;5.60;5.03;;;20.50;99.90;;;;;;5029590;28;20037;-86
2021/06/14 01:20:15;;;;;;;7.40;5.80;;;20.50;99.90;;;;;;5032558;28;20026;-86
2021/06/14 01:23:17;;;;;;;8.85;5.32;;;20.50;99.90;;;;;;5032153;28;20099;-86
2021/06/14 01:26:00;;;;;;;5.95;5.40;;;20.50;99.90;;;;;;5032716;28;20073;-86
2021/06/14 01:28:28;;;;;;;6.22;4.95;;;20.40;99.90;;;;;;5032514;28;20025;-86
2021/06/14 01:30:55;;;;;;;5.80;5.22;;;20.30;99.90;;;;;;5032024;28;20030;-86
2021/06/14 01:33:24;;;;;;;7.18;5.55;;;20.20;99.90;;;;;;5031845;28;20026;-86
2021/06/14 01:35:53;;;;;;;6.25;5.30;;;20.20;99.90;;;;;;5013739;28;20029;-86
2021/06/14 01:38:22;;;;;;;5.55;5.13;;;20.30;99.90;;;;;;5032293;28;20029;-86
2021/06/14 01:40:50;;;;;;;6.63;5.03;;;20.40;99.90;;;;;;5031069;28;20033;-86
2021/06/14 01:43:21;;;;;;;6.40;5.55;;;20.30;99.90;;;;;;5031662;28;20033;-86
2021/06/14 01:45:54;;;;;;;5.80;5.20;;;20.30;99.90;;;;;;5032004;28;20036;-86
2021/06/14 01:48:20;;;;;;;5.53;4.80;;;20.10;99.90;;;;;;5031989;28;20037;-86
2021/06/14 01:50:48;;;;;;;8.25;5.72;;;20.10;99.90;;;;;;5031158;28;20032;-86
2021/06/14 01:53:15;;;;;;;5.97;5.38;;;20.00;99.90;;;;;;5031964;28;20561;-86
2021/06/14 01:55:42;;;;;;;6.45;5.30;;;20.10;99.90;;;;;;5032789;28;20030;-85
2021/06/14 01:58:08;;;;;;;6.63;5.40;;;20.00;99.90;;;;;;5031497;28;20450;-86
2021/06/14 02:00:37;;;;;;;6.07;5.50;;;20.00;99.90;;;;;;5030671;28;20036;-86
2021/06/14 02:03:06;;;;;;;7.75;5.47;;;19.90;99.90;;;;;;5031404;28;20389;-86
2021/06/14 02:05:32;;;;;;;6.43;5.82;;;19.80;99.90;;;;;;5031408;28;20113;-86
2021/06/14 02:07:59;;;;;;;6.70;5.45;;;19.70;99.90;;;;;;5031973;28;20034;-86
2021/06/14 02:10:25;;;;;;;6.10;5.38;;;19.70;99.90;;;;;;5031228;28;20493;-86
2021/06/14 02:12:53;;;;;;;7.85;6.57;;;19.70;99.90;;;;;;5031353;28;20029;-86
2021/06/14 02:15:21;;;;;;;7.00;6.10;;;19.70;99.90;;;;;;5031069;28;20071;-86
2021/06/14 02:17:48;;;;;;;6.07;5.45;;;19.80;99.90;;;;;;5032302;28;20022;-85
2021/06/14 02:20:14;;;;;;;8.10;6.25;;;19.70;99.90;;;;;;5030820;28;20383;-86
2021/06/14 02:22:41;;;;;;;7.25;6.35;;;19.70;99.90;;;;;;5031549;28;20044;-86
2021/06/14 02:25:09;;;;;;;7.20;6.50;;;19.70;99.90;;;;;;5031169;28;20037;-86
2021/06/14 02:27:35;;;;;;;8.18;6.70;;;19.70;99.90;;;;;;5031387;28;20032;-86
2021/06/14 02:30:04;;;;;;;7.75;6.80;;;19.60;99.90;;;;;;5031498;28;20025;-86
2021/06/14 02:32:31;;;;;;;9.65;6.88;;;19.50;99.90;;;;;;5030787;28;20616;-86
2021/06/14 02:34:57;;;;;;;7.13;6.15;;;19.40;99.90;;;;;;5031114;28;20496;-86
2021/06/14 02:37:23;;;;;;;8.23;6.72;;;19.30;99.90;;;;;;5030988;28;20026;-86
2021/06/14 02:39:52;;;;;;;8.30;6.07;;;19.30;99.90;;;;;;5031612;28;20444;-86
2021/06/14 02:42:18;;;;;;;7.05;6.13;;;19.40;99.90;;;;;;5030861;28;20059;-86
2021/06/14 02:44:45;;;;;;;7.13;6.07;;;19.30;99.90;;;;;;5031006;28;20033;-86
2021/06/14 02:47:13;;;;;;;6.22;5.57;;;19.10;99.90;;;;;;5031615;28;20076;-86
2021/06/14 02:49:40;;;;;;;6.18;5.53;;;19.20;99.90;;;;;;5030301;28;20112;-86
2021/06/14 02:52:10;;;;;;;7.57;5.82;;;19.30;99.90;;;;;;5030806;28;20106;-86
2021/06/14 02:54:52;;;;;;;7.80;5.70;;;19.20;99.90;;;;;;5030682;28;20107;-86
2021/06/14 02:57:20;;;;;;;7.10;5.78;;;19.10;99.90;;;;;;5031132;28;20021;-86
2021/06/14 02:59:48;;;;;;;6.38;5.78;;;19.00;99.90;;;;;;5031259;28;20025;-86
2021/06/14 03:02:14;;;;;;;6.28;5.78;;;19.10;99.90;;;;;;5031004;28;20033;-86
2021/06/14 03:04:40;;;;;;;8.25;6.10;;;19.00;99.90;;;;;;5030739;28;20037;-86
2021/06/14 03:07:06;;;;;;;7.15;5.97;;;18.90;99.90;;;;;;5030857;28;20087;-86
2021/06/14 03:09:33;;;;;;;6.55;5.93;;;18.90;99.90;;;;;;5030656;28;20060;-86
2021/06/14 03:11:59;;;;;;;7.43;5.80;;;18.90;99.90;;;;;;5032970;28;20071;-86
2021/06/14 03:14:26;;;;;;;7.22;5.53;;;18.80;99.90;;;;;;5035462;28;20033;-86
2021/06/14 03:16:52;;;;;;;7.95;5.50;;;18.90;99.90;;;;;;5035060;28;20028;-86
2021/06/14 03:19:25;;;;;;;6.65;5.40;;;18.90;99.90;;;;;;5033916;28;20073;-86
2021/06/14 03:21:50;;;;;;;7.15;6.00;;;18.80;99.90;;;;;;5034316;28;20044;-86
2021/06/14 03:24:17;;;;;;;6.18;5.57;;;18.80;99.90;;;;;;5035136;28;20021;-86
2021/06/14 03:26:45;;;;;;;5.97;5.28;;;18.70;99.90;;;;;;5034394;28;20092;-86
2021/06/14 03:29:18;;;;;;;6.70;6.00;;;18.70;99.90;;;;;;5034718;28;20028;-85
2021/06/14 03:31:46;;;;;;;6.53;5.93;;;18.60;99.90;;;;;;5034462;28;20025;-86
2021/06/14 03:34:13;;;;;;;7.55;5.95;;;19.10;99.90;;;;;;5033997;28;20033;-86
2021/06/14 03:36:40;;;;;;;6.55;5.82;;;18.60;99.90;;;;;;5034663;28;20025;-85
2021/06/14 03:39:07;;;;;;;6.93;6.32;;;18.60;99.90;;;;;;5034540;28;20026;-86
2021/06/14 03:41:32;;;;;;;6.72;6.05;;;18.60;99.90;;;;;;5033818;28;20038;-86
2021/06/14 03:44:02;;;;;;;7.28;6.38;;;18.50;99.90;;;;;;5017071;28;20455;-86
2021/06/14 03:46:28;;;;;;;6.53;5.80;;;18.50;99.90;;;;;;5016452;28;20063;-86
2021/06/14 03:48:54;;;;;;;8.07;6.22;;;18.40;99.90;;;;;;5033767;28;20433;-86
2021/06/14 03:51:19;;;;;;;17.15;6.47;;;18.40;99.90;;;;;;5033091;28;20021;-85
2021/06/14 03:53:56;;;;;;;7.25;5.88;;;18.70;99.90;;;;;;5034167;28;20127;-86
2021/06/14 03:56:23;;;;;;;7.47;6.15;;;18.40;99.90;;;;;;5033837;28;20036;-86
2021/06/14 03:58:49;;;;;;;8.80;6.28;;;18.40;99.90;;;;;;5034295;28;20056;-86
2021/06/14 04:01:14;;;;;;;7.20;6.00;;;18.30;99.90;;;;;;5033267;28;20034;-86
2021/06/14 04:03:41;;;;;;;9.00;6.40;;;18.50;99.90;;;;;;5033726;28;20029;-86
2021/06/14 04:06:07;;;;;;;6.75;6.05;;;18.40;99.90;;;;;;5034466;28;20013;-86
2021/06/14 04:08:36;;;;;;;7.43;5.70;;;18.50;99.90;;;;;;5033691;28;20037;-85
2021/06/14 04:11:02;;;;;;;8.75;6.32;;;18.60;99.90;;;;;;5034243;28;20032;-86
2021/06/14 04:13:27;;;;;;;6.47;5.88;;;18.50;99.90;;;;;;5033246;28;20033;-86
2021/06/14 04:15:53;;;;;;;9.45;6.15;;;18.50;99.90;;;;;;5033236;28;20386;-86
2021/06/14 04:18:18;;;;;;;7.18;6.47;;;18.50;99.90;;;;;;5033227;28;20032;-86
2021/06/14 04:20:44;;;;;;;8.23;6.13;;;18.50;99.90;;;;;;5033768;28;20566;-85
2021/06/14 04:23:10;;;;;;;7.88;6.35;;;18.50;99.90;;;;;;5032523;28;20486;-86
2021/06/14 04:25:35;;;;;;;7.65;6.40;;;18.50;99.90;;;;;;5033277;28;20820;-85
2021/06/14 04:28:03;;;;;;;8.02;5.90;;;18.50;99.90;;;;;;5033290;28;20026;-85
2021/06/14 04:30:29;;;;;;;8.00;6.30;;;18.60;99.90;;;;;;5031941;28;20892;-85
2021/06/14 04:32:54;;;;;;;6.70;6.10;;;18.50;99.90;;;;;;5033165;28;20049;-86
2021/06/14 04:35:20;;;;;;;7.07;6.07;;;18.50;99.90;;;;;;5033313;28;20041;-86
2021/06/14 04:37:45;;;;;;;6.68;5.82;;;18.50;99.90;;;;;;5031549;28;20087;-87
2021/06/14 04:40:11;;;;;;;8.57;5.85;;;18.70;99.90;;;;;;5032816;28;20064;-88
2021/06/14 04:42:37;;;;;;;8.07;6.35;;;18.60;1.00;;;;;;5015209;28;20032;-86
2021/06/14 04:45:04;;;;;;;7.07;5.97;;;18.60;99.90;;;;;;5032731;28;20028;-85
2021/06/14 04:47:29;;;;;;;8.43;6.07;;;18.60;99.90;;;;;;5033578;28;20030;-86
2021/06/14 04:49:57;;;;;;;6.88;6.20;;;18.70;99.90;;;;;;5033413;28;20031;-86
2021/06/14 04:52:23;;;;;;;9.32;6.20;;;18.70;99.90;;;;;;5015146;28;20044;-87
2021/06/14 04:54:49;;;;;;;7.00;6.30;;;18.80;99.90;;;;;;5033096;28;20029;-86
2021/06/14 04:57:15;;;;;;;6.93;6.22;;;18.90;99.90;;;;;;5032591;28;20095;-87
2021/06/14 04:59:40;;;;;;;7.93;6.55;;;18.80;99.90;;;;;;5032846;28;20072;-86
2021/06/14 05:02:06;;;;;;;9.40;6.13;;;18.80;99.90;;;;;;5032903;28;20025;-86
2021/06/14 05:04:31;;;;;;;8.30;6.38;;;18.90;99.90;;;;;;5015464;28;20041;-85
2021/06/14 05:06:57;;;;;;;8.35;6.55;;;18.80;1.00;;;;;;5032430;28;20021;-86
2021/06/14 05:09:23;;;;;;;19.05;7.72;;;19.00;99.90;;;;;;5032435;28;20075;-85
2021/06/14 05:11:49;;;;;;;8.93;6.72;;;18.80;99.90;;;;;;5032698;28;20470;-86
2021/06/14 05:14:15;;;;;;;12.52;7.18;;;18.80;99.90;;;;;;5031975;28;20088;-85
2021/06/14 05:16:41;;;;;;;11.13;8.07;;;18.70;99.90;;;;;;5032810;28;20352;-87
2021/06/14 05:19:07;;;;;;;8.88;8.07;;;18.90;99.90;;;;;;5014391;28;20466;-86
2021/06/14 05:21:33;;;;;;;9.35;8.23;;;19.00;99.90;;;;;;5032096;28;20065;-86
2021/06/14 05:23:58;;;;;;;9.93;8.90;;;19.00;99.90;;;;;;5032876;28;20025;-85
2021/06/14 05:26:24;;;;;;;8.52;7.63;;;18.90;99.90;;;;;;5032137;28;20033;-86
2021/06/14 05:28:49;;;;;;;9.68;7.50;;;18.90;99.90;;;;;;5014578;28;20028;-86
2021/06/14 05:31:15;;;;;;;9.65;7.43;;;19.10;99.90;;;;;;5031816;28;20554;-94
2021/06/14 05:33:41;;;;;;;10.05;7.40;;;19.20;99.90;;;;;;5032051;28;20040;-84
2021/06/14 05:36:07;;;;;;;9.02;6.82;;;19.30;99.90;;;;;;5031761;28;20148;-84
2021/06/14 05:38:32;;;;;;;8.50;7.53;;;19.50;99.90;;;;;;5028170;28;20397;-84
2021/06/14 05:40:58;;;;;;;8.85;6.68;;;19.50;99.90;;;;;;5031514;28;20061;-83
2021/06/14 05:43:23;;;;;;;9.50;6.50;;;19.60;99.90;;;;;;5030944;28;20040;-84
2021/06/14 05:45:49;;;;;;;9.75;6.90;;;19.60;99.90;;;;;;5031731;28;20474;-84
2021/06/14 05:48:15;;;;;;;7.75;6.72;;;19.70;99.90;;;;;;5031391;28;20514;-83
2021/06/14 05:50:40;;;;;;;7.53;6.82;;;19.80;99.90;;;;;;5031269;28;20060;-84
2021/06/14 05:53:06;;;;;;;6.18;5.32;;;19.80;99.90;;;;;;5032369;28;20116;-83
2021/06/14 05:55:32;;;;;;;6.70;5.78;;;19.80;99.90;;;;;;5031113;28;20041;-84
2021/06/14 05:57:57;;;;;;;8.15;5.80;;;19.90;99.90;;;;;;5031142;28;20029;-83
2021/06/14 06:00:23;;;;;;;7.15;5.50;;;19.90;99.90;;;;;;5031576;28;20115;-84
2021/06/14 06:02:49;;;;;;;8.45;6.07;;;19.90;99.90;;;;;;5030948;28;20493;-83
2021/06/14 06:05:15;;;;;;;6.43;5.40;;;20.00;99.90;;;;;;5031379;28;20071;-85
2021/06/14 06:07:41;;;;;;;9.55;6.10;;;20.10;99.90;;;;;;5031903;28;20033;-84
2021/06/14 06:10:09;;;;;;;5.35;4.63;;;20.10;99.90;;;;;;5026965;28;20040;-85
2021/06/14 06:12:35;;;;;;;7.20;5.20;;;20.30;99.90;;;;;;5022814;28;20490;-84
2021/06/14 06:15:01;;;;;;;8.95;5.60;;;20.30;99.90;;;;;;5031193;28;20037;-85
2021/06/14 06:17:28;;;;;;;9.20;5.13;;;20.40;99.90;;;;;;5031040;28;20026;-85
2021/06/14 06:19:54;;;;;;;6.68;4.63;;;20.50;99.90;;;;;;5031493;28;20029;-84
2021/06/14 06:22:20;;;;;;;5.47;4.50;;;20.60;99.90;;;;;;5030521;28;20044;-85
2021/06/14 06:24:45;;;;;;;7.60;5.05;;;20.70;99.90;;;;;;5030556;28;20486;-84
2021/06/14 06:27:11;;;;;;;7.60;4.60;;;20.50;99.90;;;;;;5030860;28;20025;-83
2021/06/14 06:29:37;;;;;;;6.00;4.18;;;20.50;99.90;;;;;;5029998;28;20037;-84
2021/06/14 06:32:03;;;;;;;7.30;4.32;;;20.60;99.90;;;;;;5026997;28;20025;-84
2021/06/14 06:34:28;;;;;;;3.85;3.55;;;20.50;99.90;;;;;;5027281;28;20036;-85
2021/06/14 06:36:54;;;;;;;7.20;4.22;;;20.50;99.90;;;;;;5029950;28;20025;-84
2021/06/14 06:39:20;;;;;;;4.85;4.05;;;20.60;99.90;;;;;;5030667;28;20026;-85
2021/06/14 06:41:45;;;;;;;5.38;3.80;;;20.70;99.90;;;;;;5030207;28;20036;-84
2021/06/14 06:44:12;;;;;;;5.97;4.18;;;20.70;99.90;;;;;;5013816;28;20025;-85
2021/06/14 06:46:38;;;;;;;6.03;4.63;;;20.70;99.90;;;;;;5030490;28;20053;-85
2021/06/14 06:49:04;;;;;;;4.93;4.20;;;20.80;99.90;;;;;;5030518;28;20029;-85
2021/06/14 06:51:29;;;;;;;8.23;4.25;;;20.90;99.90;;;;;;5030941;28;20040;-85
2021/06/14 06:54:11;;;;;;;7.15;4.78;;;20.80;99.90;;;;;;5030630;28;20215;-85
2021/06/14 06:56:49;;;;;;;5.18;4.47;;;20.90;99.90;;;;;;5014809;28;20033;-85
2021/06/14 06:59:14;;;;;;;5.47;4.60;;;20.90;99.90;;;;;;5028211;28;20441;-85
2021/06/14 07:01:40;;;;;;;4.68;4.20;;;20.90;99.90;;;;;;5030978;28;20033;-85
2021/06/14 07:04:07;;;;;;;7.32;4.20;;;20.90;99.90;;;;;;5030939;28;20072;-85
2021/06/14 07:06:33;;;;;;;6.75;4.22;;;21.00;99.90;;;;;;5031069;28;20018;-85
2021/06/14 07:08:59;;;;;;;9.25;4.38;;;21.10;99.90;;;;;;5030284;28;20044;-83
2021/06/14 07:11:26;;;;;;;6.97;4.20;;;21.10;99.90;;;;;;5030483;28;20030;-85
2021/06/14 07:13:52;;;;;;;5.53;3.95;;;21.30;99.90;;;;;;5031402;28;20037;-86
2021/06/14 07:16:19;;;;;;;7.80;3.58;;;21.30;99.90;;;;;;5030657;28;20034;-84
2021/06/14 07:18:45;;;;;;;3.78;3.35;;;21.30;99.90;;;;;;5030920;28;20022;-81
2021/06/14 07:21:10;;;;;;;5.75;3.92;;;21.30;1.00;;;;;;5030840;28;20079;-84
2021/06/14 07:23:36;;;;;;;8.60;4.40;;;21.00;99.90;;;;;;5011067;28;20026;-90
2021/06/14 07:26:02;;;;;;;6.78;5.50;;;21.00;99.90;;;;;;4993798;28;20026;-78
2021/06/14 07:28:28;;;;;;;6.13;4.60;;;21.10;99.90;;;;;;5010741;28;20030;-78
2021/06/14 07:30:53;;;;;;;7.10;5.07;;;21.20;99.90;;;;;;5010642;28;20083;-79
2021/06/14 07:33:19;;;;;;;4.90;4.20;;;21.30;99.90;;;;;;5010909;28;20024;-79
2021/06/14 07:35:45;;;;;;;11.65;4.97;;;21.40;99.90;;;;;;5010610;28;20088;-79
2021/06/14 07:38:12;;;;;;;13.75;4.85;;;21.50;99.90;;;;;;5010755;28;20026;-81
2021/06/14 07:40:37;;;;;;;7.80;4.35;;;21.80;99.90;;;;;;5011136;28;20046;-80
2021/06/14 07:43:05;;;;;;;5.35;4.25;;;22.00;99.90;;;;;;5011343;28;20088;-87
2021/06/14 07:45:31;;;;;;;6.22;3.88;;;22.10;99.90;;;;;;5011460;28;20023;-87
2021/06/14 07:47:56;;;;;;;6.47;4.35;;;22.30;99.90;;;;;;5012080;28;20059;-87
2021/06/14 07:50:22;;;;;;;5.00;4.35;;;22.30;99.90;;;;;;5011114;28;20538;-86
2021/06/14 07:52:48;;;;;;;4.32;3.92;;;22.30;99.90;;;;;;5010764;28;20042;-85
2021/06/14 07:55:14;;;;;;;5.53;4.70;;;22.40;99.90;;;;;;5009112;28;20044;-85
2021/06/14 07:57:40;;;;;;;5.60;4.57;;;22.30;99.90;;;;;;5011225;28;20026;-86
2021/06/14 08:00:09;;;;;;;5.70;4.50;;;22.30;99.90;;;;;;4992893;28;20034;-85
2021/06/14 08:02:40;;;;;;;4.88;4.45;;;22.40;99.90;;;;;;5014566;28;20018;-85
2021/06/14 08:05:07;;;;;;;6.57;4.80;;;22.60;99.90;;;;;;5011258;28;20053;-87
2021/06/14 08:07:33;;;;;;;5.95;5.43;;;22.80;99.90;;;;;;5014200;28;20029;-87
2021/06/14 08:10:03;;;;;;;5.72;5.07;;;22.70;99.90;;;;;;5014135;28;20501;-87
2021/06/14 08:12:31;;;;;;;10.38;5.60;;;22.80;99.90;;;;;;5013961;28;20140;-86
2021/06/14 08:14:57;;;;;;;7.93;6.50;;;22.90;99.90;;;;;;5014543;28;20053;-86
2021/06/14 08:17:22;;;;;;;8.73;5.70;;;22.90;99.90;;;;;;5014384;28;20088;-87
2021/06/14 08:19:52;;;;;;;7.45;5.43;;;22.90;99.90;;;;;;5014832;28;20061;-87
2021/06/14 08:25:09;;;;;;;5.00;4.50;;;23.10;99.90;;;;;;5034567;28;20029;-86
2021/06/14 08:27:43;;;;;;;9.75;4.32;;;23.30;99.90;;;;;;5033615;28;20021;-86
2021/06/14 08:30:14;;;;;;;5.22;4.53;;;23.50;99.90;;;;;;5033563;28;20084;-86
2021/06/14 08:32:40;;;;;;;7.70;4.60;;;23.50;99.90;;;;;;5018349;28;20075;-86
2021/06/14 08:35:08;;;;;;;6.05;4.60;;;23.50;99.90;;;;;;5034247;28;20120;-86
2021/06/14 08:37:34;;;;;;;6.22;4.65;;;23.50;99.90;;;;;;5032832;28;20137;-86
2021/06/14 08:40:00;;;;;;;5.65;4.80;;;23.50;99.90;;;;;;5032947;28;20414;-86
2021/06/14 08:42:25;;;;;;;5.80;4.53;;;23.50;99.90;;;;;;5033601;28;20116;-86
2021/06/14 08:44:51;;;;;;;4.97;4.50;;;23.60;99.90;;;;;;5033835;28;20103;-86
2021/06/14 08:47:17;;;;;;;5.65;4.80;;;23.60;99.90;;;;;;5033668;28;20045;-86
2021/06/14 08:49:44;;;;;;;8.73;4.53;;;23.80;99.90;;;;;;5033647;28;20025;-86
2021/06/14 08:52:10;;;;;;;5.13;4.63;;;24.00;99.90;;;;;;5032348;28;20397;-86
2021/06/14 08:54:40;;;;;;;6.28;4.85;;;24.00;99.90;;;;;;5032877;28;20033;-86
2021/06/14 08:57:07;;;;;;;5.93;4.40;;;24.10;99.90;;;;;;5033406;28;20021;-86
2021/06/14 08:59:32;;;;;;;5.43;4.20;;;24.10;99.90;;;;;;5032985;28;20029;-86
2021/06/14 09:01:59;;;;;;;6.35;4.82;;;24.30;99.90;;;;;;5033362;28;20026;-86
2021/06/14 09:04:25;;;;;;;4.70;4.28;;;24.40;99.90;;;;;;5032223;28;20036;-85
2021/06/14 09:06:51;;;;;;;5.20;4.60;;;24.50;99.90;;;;;;5032339;28;20492;-85
2021/06/14 09:09:16;;;;;;;4.88;4.40;;;24.40;99.90;;;;;;5032595;28;20079;-86
2021/06/14 09:11:54;;;;;;;5.90;4.13;;;24.50;99.90;;;;;;5032715;28;20370;-85
2021/06/14 09:14:22;;;;;;;5.88;4.90;;;24.60;99.90;;;;;;5032736;28;20411;-86
2021/06/14 09:16:52;;;;;;;4.95;4.25;;;24.70;99.90;;;;;;5030758;28;20022;-85
2021/06/14 09:19:30;;;;;;;6.47;4.60;;;24.70;99.90;;;;;;5032685;28;20037;-86
2021/06/14 09:22:09;;;;;;;4.40;4.00;;;24.80;99.90;;;;;;5032877;28;20088;-86
2021/06/14 09:24:34;;;;;;;4.40;4.00;;;25.00;99.90;;;;;;5032478;28;20025;-86
2021/06/14 09:27:00;;;;;;;5.93;4.38;;;25.00;99.90;;;;;;5032686;28;20482;-86
2021/06/14 09:29:28;;;;;;;4.63;4.22;;;24.90;99.90;;;;;;5032282;28;20025;-87
2021/06/14 09:32:00;;;;;;;4.60;3.58;;;25.10;99.90;;;;;;5015760;28;20382;-86
2021/06/14 09:34:34;;;;;;;6.90;4.43;;;25.20;99.90;;;;;;5032010;28;20489;-87
2021/06/14 09:37:02;;;;;;;5.07;3.80;;;25.30;99.90;;;;;;5014982;28;20100;-87
2021/06/14 09:39:35;;;;;;;6.82;4.57;;;25.40;99.90;;;;;;5014984;28;20026;-87
2021/06/14 09:42:12;;;;;;;4.45;4.05;;;25.40;99.90;;;;;;5032494;28;20026;-88
2021/06/14 09:44:37;;;;;;;4.68;4.00;;;25.30;99.90;;;;;;5029781;28;20033;-87
2021/06/14 09:47:10;;;;;;;5.53;4.00;;;25.40;99.90;;;;;;5013452;28;20025;-88
2021/06/14 09:49:36;;;;;;;5.00;4.30;;;25.40;99.90;;;;;;5032485;28;20072;-87
2021/06/14 09:52:04;;;;;;;4.50;3.80;;;25.50;99.90;;;;;;5032369;28;20112;-87
2021/06/14 09:54:32;;;;;;;4.20;3.90;;;25.80;99.90;;;;;;5031956;28;20033;-87
2021/06/14 09:57:00;;;;;;;4.32;3.85;;;25.80;99.90;;;;;;5033016;28;20092;-89
2021/06/14 09:59:32;;;;;;;4.13;3.75;;;26.10;99.90;;;;;;5032756;28;20108;-89
2021/06/14 10:02:10;;;;;;;4.43;4.13;;;26.20;99.90;;;;;;5032569;28;20033;-90
2021/06/14 10:04:36;;;;;;;4.40;4.00;;;26.10;99.90;;;;;;5032766;28;20031;-87
2021/06/14 10:07:13;;;;;;;6.03;4.22;;;26.20;99.90;;;;;;5032658;28;20033;-88
2021/06/14 10:09:47;;;;;;;8.05;3.80;;;26.30;99.90;;;;;;5032050;28;20464;-90
2021/06/14 10:12:21;;;;;;;4.10;3.70;;;26.40;99.90;;;;;;5014554;28;20037;-90
2021/06/14 10:15:04;;;;;;;6.57;4.15;;;26.40;99.90;;;;;;5032410;28;20037;-89
2021/06/14 10:17:36;;;;;;;4.90;3.85;;;26.50;99.90;;;;;;5031861;28;20034;-88
2021/06/14 10:20:12;;;;;;;4.20;3.80;;;26.70;99.90;;;;;;5032826;28;20018;-88
2021/06/14 10:22:38;;;;;;;4.10;3.72;;;26.50;99.90;;;;;;5009791;28;20068;-89
2021/06/14 10:25:06;;;;;;;4.35;3.97;;;26.40;99.90;;;;;;5031827;28;20029;-88
2021/06/14 10:27:33;;;;;;;4.55;4.00;;;26.60;99.90;;;;;;5031532;28;20075;-88
2021/06/14 10:29:59;;;;;;;4.35;3.83;;;26.50;99.90;;;;;;5031838;28;20017;-88
2021/06/14 10:32:25;;;;;;;4.50;4.10;;;26.40;99.90;;;;;;5031365;28;20029;-88
2021/06/14 10:34:53;;;;;;;4.13;3.80;;;26.50;99.90;;;;;;5014698;28;20037;-89
2021/06/14 10:37:21;;;;;;;4.03;3.72;;;26.60;99.90;;;;;;5009440;28;20033;-89
2021/06/14 10:39:52;;;;;;;3.97;3.67;;;26.60;99.90;;;;;;5031580;28;20021;-89
2021/06/14 10:42:18;;;;;;;6.68;4.00;;;26.60;99.90;;;;;;5032137;28;20041;-89
2021/06/14 10:44:44;;;;;;;5.32;4.72;;;26.80;99.90;;;;;;5031594;28;20448;-89
2021/06/14 10:47:11;;;;;;;5.45;3.85;;;26.80;99.90;;;;;;5031498;28;20036;-88
2021/06/14 10:49:37;;;;;;;4.35;4.00;;;26.80;99.90;;;;;;5031544;28;20033;-87
2021/06/14 10:52:04;;;;;;;4.43;3.95;;;26.90;99.90;;;;;;5031737;28;20056;-88
2021/06/14 10:54:42;;;;;;;4.40;3.55;;;27.00;99.90;;;;;;5033141;28;20037;-88
2021/06/14 10:57:10;;;;;;;4.95;3.97;;;27.30;99.90;;;;;;5032105;28;20486;-88
2021/06/14 10:59:43;;;;;;;4.38;3.88;;;27.30;99.90;;;;;;5013835;28;20024;-88
2021/06/14 11:02:12;;;;;;;4.38;3.97;;;27.20;99.90;;;;;;5028061;28;20025;-89
2021/06/14 11:04:38;;;;;;;4.43;4.03;;;27.10;99.90;;;;;;5032033;28;20148;-89
2021/06/14 11:07:04;;;;;;;4.43;4.05;;;27.50;99.90;;;;;;5032187;28;20033;-88
2021/06/14 11:09:42;;;;;;;5.32;4.13;;;27.80;99.90;;;;;;5031294;28;20126;-87
2021/06/14 11:12:09;;;;;;;6.10;3.80;;;27.80;99.90;;;;;;5031359;28;20029;-88
2021/06/14 11:14:45;;;;;;;4.95;3.90;;;27.80;99.90;;;;;;5016211;28;20099;-91
2021/06/14 11:17:21;;;;;;;4.22;3.88;;;27.90;99.90;;;;;;5028148;28;20021;-90
2021/06/14 11:19:51;;;;;;;5.15;4.28;;;27.80;99.90;;;;;;5025975;28;20032;-89
2021/06/14 11:22:18;;;;;;;9.13;4.78;;;28.00;99.90;;;;;;5031053;28;20052;-90
2021/06/14 11:24:45;;;;;;;5.22;4.70;;;28.20;99.90;;;;;;5015075;28;20017;-90
2021/06/14 11:27:11;;;;;;;5.18;4.68;;;28.20;99.90;;;;;;5031640;28;20466;-87
2021/06/14 11:29:49;;;;;;;3.80;3.50;;;28.30;99.90;;;;;;5031039;28;20437;-86
2021/06/14 11:32:19;;;;;;;8.45;3.85;;;28.10;99.90;;;;;;5032273;28;20026;-87
2021/06/14 11:34:48;;;;;;;4.60;4.18;;;28.10;99.90;;;;;;5035100;28;20060;-88
2021/06/14 11:37:14;;;;;;;4.78;4.00;;;28.20;99.90;;;;;;5034951;28;20021;-90
2021/06/14 11:39:40;;;;;;;6.70;4.10;;;28.10;99.90;;;;;;5017311;28;20489;-90
2021/06/14 11:42:18;;;;;;;3.92;3.63;;;28.20;99.90;;;;;;5035163;28;20025;-90
2021/06/14 11:44:59;;;;;;;4.50;4.10;;;28.20;99.90;;;;;;5020093;28;20025;-90
2021/06/14 11:47:28;;;;;;;6.10;3.60;;;28.50;99.90;;;;;;5017253;28;20021;-91
2021/06/14 11:50:01;;;;;;;4.22;3.83;;;28.40;99.90;;;;;;5018047;28;20032;-90
2021/06/14 11:52:37;;;;;;;6.30;3.90;;;28.60;99.90;;;;;;5035059;28;20022;-90
2021/06/14 11:55:13;;;;;;;3.42;3.13;;;28.70;99.90;;;;;;5034638;28;20045;-90
2021/06/14 11:57:43;;;;;;;3.97;3.67;;;29.00;99.90;;;;;;5034915;28;20485;-89
2021/06/14 12:00:29;;;;;;;3.80;3.50;;;29.00;99.90;;;;;;5034644;28;20033;-90
2021/06/14 12:02:56;;;;;;;6.15;4.07;;;29.30;99.90;;;;;;5003674;28;20025;-90
2021/06/14 12:05:35;;;;;;;5.13;4.00;;;29.60;99.90;;;;;;5017332;28;20043;-90
2021/06/14 12:08:04;;;;;;;4.60;3.50;;;29.70;99.90;;;;;;5035540;28;20021;-90
2021/06/14 12:10:31;;;;;;;4.55;3.72;;;30.10;99.90;;;;;;5034298;28;20103;-90
2021/06/14 12:13:19;;;;;;;6.97;3.83;;;31.00;99.90;;;;;;5034359;28;20565;-90
2021/06/14 12:15:50;;;;;;;6.18;3.45;;;33.20;99.90;;;;;;5033952;28;20444;-90
2021/06/14 12:18:17;;;;;;;4.15;3.70;;;34.80;99.90;;;;;;5034908;28;20044;-90
2021/06/14 12:20:51;;;;;;;4.60;3.10;;;36.50;99.90;;;;;;5034424;28;20025;-90
2021/06/14 12:23:17;;;;;;;3.67;2.95;;;37.90;99.90;;;;;;5013517;28;20057;-91
2021/06/14 12:25:51;;;;;;;3.80;3.40;;;38.70;99.90;;;;;;5032434;28;20488;-91
2021/06/14 12:28:20;;;;;;;3.42;3.15;;;39.20;99.90;;;;;;5033853;28;20028;-91
2021/06/14 12:30:50;;;;;;;4.90;3.00;;;39.80;99.90;;;;;;5034266;28;20042;-91
2021/06/14 12:33:30;;;;;;;3.17;2.90;;;40.00;99.90;;;;;;5034516;28;20031;-90
2021/06/14 12:35:57;;;;;;;3.70;3.40;;;39.90;99.90;;;;;;5016339;28;20466;-91
2021/06/14 12:38:24;;;;;;;3.30;3.10;;;40.80;99.90;;;;;;5034538;28;20022;-91
2021/06/14 12:40:51;;;;;;;2.80;2.60;;;40.80;99.90;;;;;;5034552;28;20048;-91
2021/06/14 12:43:17;;;;;;;3.28;3.08;;;40.70;99.90;;;;;;5033534;28;20036;-90
2021/06/14 12:45:44;;;;;;;5.20;3.00;;;39.70;99.90;;;;;;5033344;28;20025;-90
2021/06/14 12:48:13;;;;;;;3.28;2.92;;;38.60;99.90;;;;;;5016108;28;20032;-91
2021/06/14 12:50:44;;;;;;;3.13;2.83;;;39.30;99.90;;;;;;5016104;28;20060;-91
2021/06/14 12:53:10;;;;;;;3.92;2.72;;;39.00;99.90;;;;;;5034619;28;20084;-90